sensor_id;sensor_type;location;lat;lon;timestamp;pressure;altitude;pressure_sealevel;temperature;humidity
68476;BME280;55464;48.266;14.188;2023-05-16T00:01:27;97361.97;;;11.78;78.61
68476;BME280;55464;48.266;14.188;2023-05-16T00:03:55;97360.13;;;11.82;78.45
68476;BME280;55464;48.266;14.188;2023-05-16T00:06:21;97358.50;;;11.81;78.79
68476;BME280;55464;48.266;14.188;2023-05-16T00:08:47;97352.84;;;11.73;79.03
68476;BME280;55464;48.266;14.188;2023-05-16T00:11:12;97348.09;;;11.74;78.86
68476;BME280;55464;48.266;14.188;2023-05-16T00:13:38;97352.47;;;11.75;78.59
68476;BME280;55464;48.266;14.188;2023-05-16T00:16:06;97353.28;;;11.76;78.56
68476;BME280;55464;48.266;14.188;2023-05-16T00:18:33;97343.41;;;11.75;78.28
68476;BME280;55464;48.266;14.188;2023-05-16T00:21:02;97342.94;;;11.72;78.46
68476;BME280;55464;48.266;14.188;2023-05-16T00:23:28;97349.94;;;11.66;78.48
68476;BME280;55464;48.266;14.188;2023-05-16T00:25:53;97341.94;;;11.61;78.47
68476;BME280;55464;48.266;14.188;2023-05-16T00:28:18;97337.50;;;11.57;78.76
68476;BME280;55464;48.266;14.188;2023-05-16T00:30:44;97335.84;;;11.52;78.42
68476;BME280;55464;48.266;14.188;2023-05-16T00:33:09;97343.28;;;11.51;78.62
68476;BME280;55464;48.266;14.188;2023-05-16T00:35:35;97341.56;;;11.43;79.05
68476;BME280;55464;48.266;14.188;2023-05-16T00:38:00;97346.75;;;11.29;79.41
68476;BME280;55464;48.266;14.188;2023-05-16T00:40:25;97333.53;;;11.19;79.75
68476;BME280;55464;48.266;14.188;2023-05-16T00:42:51;97335.75;;;11.13;80.46
68476;BME280;55464;48.266;14.188;2023-05-16T00:45:16;97330.59;;;11.11;80.27
68476;BME280;55464;48.266;14.188;2023-05-16T00:47:41;97336.47;;;11.10;80.96
68476;BME280;55464;48.266;14.188;2023-05-16T00:50:07;97342.78;;;11.10;81.19
68476;BME280;55464;48.266;14.188;2023-05-16T00:52:33;97331.09;;;10.97;81.35
68476;BME280;55464;48.266;14.188;2023-05-16T00:55:00;97328.13;;;10.90;81.46
68476;BME280;55464;48.266;14.188;2023-05-16T00:57:26;97339.06;;;10.87;81.62
68476;BME280;55464;48.266;14.188;2023-05-16T00:59:52;97340.97;;;10.83;81.90
68476;BME280;55464;48.266;14.188;2023-05-16T01:02:18;97331.91;;;10.82;81.13
68476;BME280;55464;48.266;14.188;2023-05-16T01:04:45;97333.75;;;10.78;81.11
68476;BME280;55464;48.266;14.188;2023-05-16T01:07:12;97333.94;;;10.69;82.31
68476;BME280;55464;48.266;14.188;2023-05-16T01:09:37;97335.44;;;10.67;82.27
68476;BME280;55464;48.266;14.188;2023-05-16T01:15:09;97328.31;;;10.66;82.31
68476;BME280;55464;48.266;14.188;2023-05-16T01:18:05;97331.91;;;10.66;82.55
68476;BME280;55464;48.266;14.188;2023-05-16T01:23:20;97339.44;;;10.69;82.44
68476;BME280;55464;48.266;14.188;2023-05-16T01:26:26;97345.41;;;10.71;82.03
68476;BME280;55464;48.266;14.188;2023-05-16T01:28:53;97346.91;;;10.69;81.78
68476;BME280;55464;48.266;14.188;2023-05-16T01:31:22;97329.41;;;10.61;81.96
68476;BME280;55464;48.266;14.188;2023-05-16T01:33:48;97338.03;;;10.75;81.65
68476;BME280;55464;48.266;14.188;2023-05-16T01:39:02;97323.47;;;10.75;81.25
68476;BME280;55464;48.266;14.188;2023-05-16T01:46:55;97330.56;;;10.60;80.88
68476;BME280;55464;48.266;14.188;2023-05-16T01:49:27;97339.63;;;10.60;80.81
68476;BME280;55464;48.266;14.188;2023-05-16T01:52:00;97327.09;;;10.63;81.46
68476;BME280;55464;48.266;14.188;2023-05-16T01:54:30;97342.28;;;10.57;81.11
68476;BME280;55464;48.266;14.188;2023-05-16T01:56:56;97334.84;;;10.57;81.42
68476;BME280;55464;48.266;14.188;2023-05-16T01:59:23;97335.97;;;10.56;80.67
68476;BME280;55464;48.266;14.188;2023-05-16T02:01:52;97334.41;;;10.55;80.41
68476;BME280;55464;48.266;14.188;2023-05-16T02:04:18;97331.25;;;10.57;79.72
68476;BME280;55464;48.266;14.188;2023-05-16T02:06:43;97334.94;;;10.61;79.49
68476;BME280;55464;48.266;14.188;2023-05-16T02:09:09;97334.94;;;10.61;79.03
68476;BME280;55464;48.266;14.188;2023-05-16T02:11:34;97340.69;;;10.56;78.96
68476;BME280;55464;48.266;14.188;2023-05-16T02:13:59;97341.75;;;10.51;78.47
68476;BME280;55464;48.266;14.188;2023-05-16T02:16:25;97345.38;;;10.39;78.19
68476;BME280;55464;48.266;14.188;2023-05-16T02:18:50;97345.13;;;10.45;78.75
68476;BME280;55464;48.266;14.188;2023-05-16T02:21:16;97342.84;;;10.47;78.95
68476;BME280;55464;48.266;14.188;2023-05-16T02:23:41;97349.50;;;10.46;79.03
68476;BME280;55464;48.266;14.188;2023-05-16T02:26:06;97355.25;;;10.40;79.39
68476;BME280;55464;48.266;14.188;2023-05-16T02:28:32;97347.34;;;10.39;79.49
68476;BME280;55464;48.266;14.188;2023-05-16T02:30:58;97346.22;;;10.40;79.58
68476;BME280;55464;48.266;14.188;2023-05-16T02:33:26;97333.84;;;10.34;79.51
68476;BME280;55464;48.266;14.188;2023-05-16T02:35:52;97339.19;;;10.43;79.83
68476;BME280;55464;48.266;14.188;2023-05-16T02:38:17;97336.78;;;10.41;80.20
68476;BME280;55464;48.266;14.188;2023-05-16T02:40:48;97335.09;;;10.36;80.67
68476;BME280;55464;48.266;14.188;2023-05-16T02:43:14;97322.91;;;10.37;81.12
68476;BME280;55464;48.266;14.188;2023-05-16T02:45:39;97331.00;;;10.46;81.39
68476;BME280;55464;48.266;14.188;2023-05-16T02:48:05;97323.09;;;10.45;81.68
68476;BME280;55464;48.266;14.188;2023-05-16T02:50:31;97320.78;;;10.47;82.02
68476;BME280;55464;48.266;14.188;2023-05-16T02:52:57;97330.28;;;10.49;82.30
68476;BME280;55464;48.266;14.188;2023-05-16T02:55:24;97336.25;;;10.51;82.02
68476;BME280;55464;48.266;14.188;2023-05-16T02:57:50;97334.75;;;10.54;82.47
68476;BME280;55464;48.266;14.188;2023-05-16T03:00:16;97338.22;;;10.51;82.70
68476;BME280;55464;48.266;14.188;2023-05-16T03:02:42;97342.19;;;10.53;82.92
68476;BME280;55464;48.266;14.188;2023-05-16T03:05:08;97338.38;;;10.58;83.11
68476;BME280;55464;48.266;14.188;2023-05-16T03:07:34;97333.66;;;10.58;83.23
68476;BME280;55464;48.266;14.188;2023-05-16T03:10:00;97322.66;;;10.58;83.38
68476;BME280;55464;48.266;14.188;2023-05-16T03:12:25;97328.59;;;10.60;83.05
68476;BME280;55464;48.266;14.188;2023-05-16T03:14:50;97331.72;;;10.59;83.28
68476;BME280;55464;48.266;14.188;2023-05-16T03:17:16;97326.56;;;10.57;83.31
68476;BME280;55464;48.266;14.188;2023-05-16T03:19:41;97313.94;;;10.56;83.60
68476;BME280;55464;48.266;14.188;2023-05-16T03:22:07;97311.00;;;10.49;83.18
68476;BME280;55464;48.266;14.188;2023-05-16T03:24:32;97303.78;;;10.45;83.23
68476;BME280;55464;48.266;14.188;2023-05-16T03:26:57;97315.38;;;10.50;82.99
68476;BME280;55464;48.266;14.188;2023-05-16T03:29:24;97312.28;;;10.52;82.25
68476;BME280;55464;48.266;14.188;2023-05-16T03:31:50;97313.31;;;10.47;81.05
68476;BME280;55464;48.266;14.188;2023-05-16T03:34:15;97301.88;;;10.45;80.53
68476;BME280;55464;48.266;14.188;2023-05-16T03:36:41;97301.22;;;10.36;80.73
68476;BME280;55464;48.266;14.188;2023-05-16T03:39:06;97306.28;;;10.34;80.66
68476;BME280;55464;48.266;14.188;2023-05-16T03:41:33;97310.56;;;10.31;81.13
68476;BME280;55464;48.266;14.188;2023-05-16T03:43:59;97306.16;;;10.30;80.86
68476;BME280;55464;48.266;14.188;2023-05-16T03:46:24;97303.31;;;10.27;81.52
68476;BME280;55464;48.266;14.188;2023-05-16T03:48:49;97308.03;;;10.26;81.69
68476;BME280;55464;48.266;14.188;2023-05-16T03:51:15;97294.19;;;10.22;81.30
68476;BME280;55464;48.266;14.188;2023-05-16T03:53:40;97301.19;;;10.20;82.05
68476;BME280;55464;48.266;14.188;2023-05-16T03:56:06;97300.03;;;10.21;82.47
68476;BME280;55464;48.266;14.188;2023-05-16T03:58:32;97307.16;;;10.22;82.18
68476;BME280;55464;48.266;14.188;2023-05-16T04:00:57;97319.50;;;10.28;82.41
68476;BME280;55464;48.266;14.188;2023-05-16T04:03:23;97323.78;;;10.26;82.26
68476;BME280;55464;48.266;14.188;2023-05-16T04:05:53;97300.28;;;10.16;82.53
68476;BME280;55464;48.266;14.188;2023-05-16T04:08:19;97311.22;;;10.28;82.58
68476;BME280;55464;48.266;14.188;2023-05-16T04:10:45;97305.84;;;10.32;82.61
68476;BME280;55464;48.266;14.188;2023-05-16T04:13:10;97289.81;;;10.21;82.44
68476;BME280;55464;48.266;14.188;2023-05-16T04:15:35;97299.19;;;10.33;83.01
68476;BME280;55464;48.266;14.188;2023-05-16T04:18:01;97302.53;;;10.26;82.94
68476;BME280;55464;48.266;14.188;2023-05-16T04:20:27;97308.34;;;10.37;82.78
68476;BME280;55464;48.266;14.188;2023-05-16T04:22:52;97306.81;;;10.39;82.59
68476;BME280;55464;48.266;14.188;2023-05-16T04:25:17;97303.63;;;10.37;82.69
68476;BME280;55464;48.266;14.188;2023-05-16T04:27:43;97298.69;;;10.31;82.60
68476;BME280;55464;48.266;14.188;2023-05-16T04:30:09;97294.91;;;10.35;83.02
68476;BME280;55464;48.266;14.188;2023-05-16T04:32:35;97290.81;;;10.29;82.96
68476;BME280;55464;48.266;14.188;2023-05-16T04:35:01;97295.50;;;10.29;83.11
68476;BME280;55464;48.266;14.188;2023-05-16T04:37:27;97288.84;;;10.30;82.99
68476;BME280;55464;48.266;14.188;2023-05-16T04:39:52;97284.59;;;10.32;82.88
68476;BME280;55464;48.266;14.188;2023-05-16T04:42:19;97295.72;;;10.36;82.98
68476;BME280;55464;48.266;14.188;2023-05-16T04:44:44;97300.34;;;10.32;83.13
68476;BME280;55464;48.266;14.188;2023-05-16T04:47:12;97290.34;;;10.27;83.10
68476;BME280;55464;48.266;14.188;2023-05-16T04:49:37;97298.84;;;10.34;82.91
68476;BME280;55464;48.266;14.188;2023-05-16T04:52:04;97292.59;;;10.37;82.97
68476;BME280;55464;48.266;14.188;2023-05-16T04:54:30;97300.50;;;10.39;82.70
68476;BME280;55464;48.266;14.188;2023-05-16T04:56:55;97301.59;;;10.34;82.65
68476;BME280;55464;48.266;14.188;2023-05-16T04:59:21;97292.16;;;10.35;82.77
68476;BME280;55464;48.266;14.188;2023-05-16T05:01:47;97289.75;;;10.34;81.85
68476;BME280;55464;48.266;14.188;2023-05-16T05:04:12;97293.34;;;10.34;81.88
68476;BME280;55464;48.266;14.188;2023-05-16T05:06:38;97298.13;;;10.37;82.50
68476;BME280;55464;48.266;14.188;2023-05-16T05:09:03;97287.00;;;10.34;82.74
68476;BME280;55464;48.266;14.188;2023-05-16T05:11:30;97297.41;;;10.40;83.29
68476;BME280;55464;48.266;14.188;2023-05-16T05:13:55;97291.56;;;10.42;83.40
68476;BME280;55464;48.266;14.188;2023-05-16T05:16:21;97287.66;;;10.43;83.08
68476;BME280;55464;48.266;14.188;2023-05-16T05:18:46;97290.94;;;10.49;82.84
68476;BME280;55464;48.266;14.188;2023-05-16T05:21:11;97279.09;;;10.48;83.23
68476;BME280;55464;48.266;14.188;2023-05-16T05:23:37;97277.94;;;10.49;82.97
68476;BME280;55464;48.266;14.188;2023-05-16T05:26:02;97279.09;;;10.48;83.49
68476;BME280;55464;48.266;14.188;2023-05-16T05:28:28;97268.44;;;10.47;83.71
68476;BME280;55464;48.266;14.188;2023-05-16T05:30:53;97271.22;;;10.47;83.85
68476;BME280;55464;48.266;14.188;2023-05-16T05:33:18;97279.28;;;10.55;83.50
68476;BME280;55464;48.266;14.188;2023-05-16T05:35:44;97283.19;;;10.54;83.17
68476;BME280;55464;48.266;14.188;2023-05-16T05:38:09;97283.63;;;10.56;83.53
68476;BME280;55464;48.266;14.188;2023-05-16T05:40:35;97295.91;;;10.59;83.25
68476;BME280;55464;48.266;14.188;2023-05-16T05:43:00;97302.66;;;10.62;83.68
68476;BME280;55464;48.266;14.188;2023-05-16T05:45:26;97278.47;;;10.55;84.14
68476;BME280;55464;48.266;14.188;2023-05-16T05:47:51;97282.56;;;10.45;82.69
68476;BME280;55464;48.266;14.188;2023-05-16T05:50:17;97283.63;;;10.40;83.42
68476;BME280;55464;48.266;14.188;2023-05-16T05:52:42;97289.84;;;10.53;83.19
68476;BME280;55464;48.266;14.188;2023-05-16T05:55:08;97307.03;;;10.47;83.43
68476;BME280;55464;48.266;14.188;2023-05-16T05:57:33;97304.00;;;10.52;83.33
68476;BME280;55464;48.266;14.188;2023-05-16T05:59:58;97311.63;;;10.58;83.14
68476;BME280;55464;48.266;14.188;2023-05-16T06:02:24;97304.44;;;10.54;83.34
68476;BME280;55464;48.266;14.188;2023-05-16T06:04:49;97308.06;;;10.58;82.94
68476;BME280;55464;48.266;14.188;2023-05-16T06:07:15;97311.09;;;10.53;83.08
68476;BME280;55464;48.266;14.188;2023-05-16T06:09:41;97310.03;;;10.42;83.98
68476;BME280;55464;48.266;14.188;2023-05-16T06:12:08;97324.78;;;10.49;84.03
68476;BME280;55464;48.266;14.188;2023-05-16T06:14:33;97327.19;;;10.51;83.85
68476;BME280;55464;48.266;14.188;2023-05-16T06:16:59;97340.34;;;10.57;84.27
68476;BME280;55464;48.266;14.188;2023-05-16T06:19:24;97337.84;;;10.52;83.46
68476;BME280;55464;48.266;14.188;2023-05-16T06:21:49;97339.09;;;10.55;84.01
68476;BME280;55464;48.266;14.188;2023-05-16T06:24:15;97328.69;;;10.32;84.43
68476;BME280;55464;48.266;14.188;2023-05-16T06:26:40;97335.28;;;10.44;84.54
68476;BME280;55464;48.266;14.188;2023-05-16T06:29:06;97326.03;;;10.52;84.66
68476;BME280;55464;48.266;14.188;2023-05-16T06:31:31;97336.50;;;10.62;84.51
68476;BME280;55464;48.266;14.188;2023-05-16T06:33:57;97341.06;;;10.70;84.53
68476;BME280;55464;48.266;14.188;2023-05-16T06:36:22;97334.75;;;10.70;84.64
68476;BME280;55464;48.266;14.188;2023-05-16T06:38:48;97348.34;;;10.78;84.30
68476;BME280;55464;48.266;14.188;2023-05-16T06:41:14;97341.75;;;10.83;84.18
68476;BME280;55464;48.266;14.188;2023-05-16T06:43:40;97334.22;;;10.80;84.23
68476;BME280;55464;48.266;14.188;2023-05-16T06:46:05;97339.72;;;10.80;83.91
68476;BME280;55464;48.266;14.188;2023-05-16T06:48:31;97349.66;;;10.85;83.69
68476;BME280;55464;48.266;14.188;2023-05-16T06:50:56;97337.94;;;10.88;83.93
68476;BME280;55464;48.266;14.188;2023-05-16T06:53:22;97336.88;;;10.92;84.52
68476;BME280;55464;48.266;14.188;2023-05-16T06:55:47;97337.03;;;11.00;84.40
68476;BME280;55464;48.266;14.188;2023-05-16T06:58:13;97347.72;;;11.01;84.37
68476;BME280;55464;48.266;14.188;2023-05-16T07:00:38;97350.91;;;11.03;84.13
68476;BME280;55464;48.266;14.188;2023-05-16T07:03:03;97346.53;;;11.02;83.80
68476;BME280;55464;48.266;14.188;2023-05-16T07:05:29;97339.44;;;11.01;84.41
68476;BME280;55464;48.266;14.188;2023-05-16T07:07:54;97339.59;;;11.08;83.87
68476;BME280;55464;48.266;14.188;2023-05-16T07:10:20;97341.63;;;11.11;84.56
68476;BME280;55464;48.266;14.188;2023-05-16T07:12:46;97330.22;;;11.13;84.88
68476;BME280;55464;48.266;14.188;2023-05-16T07:15:12;97321.59;;;11.14;84.57
68476;BME280;55464;48.266;14.188;2023-05-16T07:17:38;97318.13;;;11.18;84.82
68476;BME280;55464;48.266;14.188;2023-05-16T07:20:04;97318.28;;;11.25;85.05
68476;BME280;55464;48.266;14.188;2023-05-16T07:22:30;97309.22;;;11.24;84.59
68476;BME280;55464;48.266;14.188;2023-05-16T07:24:56;97303.69;;;11.24;84.83
68476;BME280;55464;48.266;14.188;2023-05-16T07:27:25;97312.47;;;11.30;84.86
68476;BME280;55464;48.266;14.188;2023-05-16T07:29:50;97314.59;;;11.37;84.67
68476;BME280;55464;48.266;14.188;2023-05-16T07:32:15;97326.16;;;11.42;83.54
68476;BME280;55464;48.266;14.188;2023-05-16T07:34:41;97321.41;;;11.43;83.56
68476;BME280;55464;48.266;14.188;2023-05-16T07:37:06;97322.31;;;11.47;84.15
68476;BME280;55464;48.266;14.188;2023-05-16T07:39:37;97315.25;;;11.49;84.16
68476;BME280;55464;48.266;14.188;2023-05-16T07:42:02;97323.53;;;11.49;83.63
68476;BME280;55464;48.266;14.188;2023-05-16T07:44:27;97333.50;;;11.54;84.10
68476;BME280;55464;48.266;14.188;2023-05-16T07:46:53;97322.19;;;11.59;83.98
68476;BME280;55464;48.266;14.188;2023-05-16T07:49:18;97328.91;;;11.62;83.58
68476;BME280;55464;48.266;14.188;2023-05-16T07:51:44;97326.25;;;11.65;83.34
68476;BME280;55464;48.266;14.188;2023-05-16T07:54:09;97323.91;;;11.67;83.20
68476;BME280;55464;48.266;14.188;2023-05-16T07:56:35;97336.13;;;11.66;82.94
68476;BME280;55464;48.266;14.188;2023-05-16T07:59:00;97329.72;;;11.62;83.39
68476;BME280;55464;48.266;14.188;2023-05-16T08:01:25;97340.47;;;11.67;83.32
68476;BME280;55464;48.266;14.188;2023-05-16T08:03:51;97337.72;;;11.67;83.36
68476;BME280;55464;48.266;14.188;2023-05-16T08:06:17;97342.88;;;11.69;83.62
68476;BME280;55464;48.266;14.188;2023-05-16T08:08:43;97343.31;;;11.71;84.33
68476;BME280;55464;48.266;14.188;2023-05-16T08:11:08;97339.03;;;11.73;84.18
68476;BME280;55464;48.266;14.188;2023-05-16T08:13:33;97342.66;;;11.78;84.19
68476;BME280;55464;48.266;14.188;2023-05-16T08:15:59;97347.38;;;11.77;84.46
68476;BME280;55464;48.266;14.188;2023-05-16T08:18:24;97351.28;;;11.76;84.22
68476;BME280;55464;48.266;14.188;2023-05-16T08:20:50;97335.78;;;11.68;84.10
68476;BME280;55464;48.266;14.188;2023-05-16T08:23:15;97337.78;;;11.71;84.34
68476;BME280;55464;48.266;14.188;2023-05-16T08:25:41;97343.47;;;11.78;83.73
68476;BME280;55464;48.266;14.188;2023-05-16T08:28:06;97336.41;;;11.81;83.36
68476;BME280;55464;48.266;14.188;2023-05-16T08:30:32;97336.06;;;11.82;83.40
68476;BME280;55464;48.266;14.188;2023-05-16T08:32:57;97333.78;;;11.88;83.77
68476;BME280;55464;48.266;14.188;2023-05-16T08:35:23;97337.28;;;11.85;83.49
68476;BME280;55464;48.266;14.188;2023-05-16T08:37:48;97337.44;;;11.92;83.73
68476;BME280;55464;48.266;14.188;2023-05-16T08:40:14;97331.13;;;11.91;83.70
68476;BME280;55464;48.266;14.188;2023-05-16T08:42:40;97331.91;;;11.92;83.12
68476;BME280;55464;48.266;14.188;2023-05-16T08:45:06;97332.09;;;11.99;83.26
68476;BME280;55464;48.266;14.188;2023-05-16T08:47:32;97339.25;;;12.04;83.53
68476;BME280;55464;48.266;14.188;2023-05-16T08:49:59;97331.34;;;12.02;84.04
68476;BME280;55464;48.266;14.188;2023-05-16T08:52:27;97341.78;;;12.13;84.03
68476;BME280;55464;48.266;14.188;2023-05-16T08:54:56;97341.44;;;12.14;83.91
68476;BME280;55464;48.266;14.188;2023-05-16T08:57:24;97332.78;;;12.16;84.22
68476;BME280;55464;48.266;14.188;2023-05-16T08:59:51;97331.25;;;12.18;84.53
68476;BME280;55464;48.266;14.188;2023-05-16T09:02:20;97313.88;;;12.18;84.98
68476;BME280;55464;48.266;14.188;2023-05-16T09:04:47;97311.59;;;12.23;84.90
68476;BME280;55464;48.266;14.188;2023-05-16T09:07:13;97296.56;;;12.21;84.79
68476;BME280;55464;48.266;14.188;2023-05-16T09:09:38;97308.91;;;12.27;84.64
68476;BME280;55464;48.266;14.188;2023-05-16T09:12:04;97299.41;;;12.24;84.63
68476;BME280;55464;48.266;14.188;2023-05-16T09:14:30;97285.94;;;12.23;84.51
68476;BME280;55464;48.266;14.188;2023-05-16T09:17:03;97286.94;;;12.34;84.69
68476;BME280;55464;48.266;14.188;2023-05-16T09:19:47;97287.78;;;12.38;84.95
68476;BME280;55464;48.266;14.188;2023-05-16T09:22:17;97295.34;;;12.41;85.08
68476;BME280;55464;48.266;14.188;2023-05-16T09:24:43;97289.44;;;12.43;84.94
68476;BME280;55464;48.266;14.188;2023-05-16T09:27:14;97275.19;;;12.41;84.84
68476;BME280;55464;48.266;14.188;2023-05-16T09:29:44;97275.31;;;12.48;84.92
68476;BME280;55464;48.266;14.188;2023-05-16T09:32:13;97271.03;;;12.51;84.92
68476;BME280;55464;48.266;14.188;2023-05-16T09:34:47;97279.78;;;12.56;85.16
68476;BME280;55464;48.266;14.188;2023-05-16T09:37:14;97277.94;;;12.64;85.55
68476;BME280;55464;48.266;14.188;2023-05-16T09:39:50;97267.75;;;12.68;84.46
68476;BME280;55464;48.266;14.188;2023-05-16T09:42:17;97268.22;;;12.74;84.38
68476;BME280;55464;48.266;14.188;2023-05-16T09:44:48;97251.31;;;12.79;84.22
68476;BME280;55464;48.266;14.188;2023-05-16T09:47:15;97256.47;;;12.80;83.76
68476;BME280;55464;48.266;14.188;2023-05-16T09:49:44;97279.81;;;12.83;83.76
68476;BME280;55464;48.266;14.188;2023-05-16T09:52:10;97273.19;;;12.88;83.97
68476;BME280;55464;48.266;14.188;2023-05-16T09:54:36;97269.56;;;12.83;82.44
68476;BME280;55464;48.266;14.188;2023-05-16T09:57:01;97266.91;;;12.91;82.16
68476;BME280;55464;48.266;14.188;2023-05-16T09:59:34;97274.44;;;12.94;81.72
68476;BME280;55464;48.266;14.188;2023-05-16T10:02:00;97285.59;;;12.97;82.44
68476;BME280;55464;48.266;14.188;2023-05-16T10:04:27;97277.69;;;12.99;82.00
68476;BME280;55464;48.266;14.188;2023-05-16T10:06:54;97261.91;;;13.00;80.80
68476;BME280;55464;48.266;14.188;2023-05-16T10:09:21;97258.28;;;12.96;80.73
68476;BME280;55464;48.266;14.188;2023-05-16T10:11:47;97276.88;;;12.99;81.13
68476;BME280;55464;48.266;14.188;2023-05-16T10:14:16;97285.63;;;13.01;81.13
68476;BME280;55464;48.266;14.188;2023-05-16T10:16:42;97301.47;;;13.04;81.44
68476;BME280;55464;48.266;14.188;2023-05-16T10:19:08;97312.53;;;13.04;81.27
68476;BME280;55464;48.266;14.188;2023-05-16T10:21:37;97310.53;;;13.01;81.52
68476;BME280;55464;48.266;14.188;2023-05-16T10:24:06;97314.50;;;13.03;82.05
68476;BME280;55464;48.266;14.188;2023-05-16T10:26:35;97307.72;;;12.97;81.64
68476;BME280;55464;48.266;14.188;2023-05-16T10:29:02;97306.84;;;12.93;81.18
68476;BME280;55464;48.266;14.188;2023-05-16T10:31:28;97325.16;;;13.01;81.47
68476;BME280;55464;48.266;14.188;2023-05-16T10:33:56;97313.63;;;12.96;81.44
68476;BME280;55464;48.266;14.188;2023-05-16T10:36:22;97311.31;;;13.01;80.85
68476;BME280;55464;48.266;14.188;2023-05-16T10:38:48;97300.63;;;13.00;81.15
68476;BME280;55464;48.266;14.188;2023-05-16T10:41:15;97292.75;;;13.02;81.60
68476;BME280;55464;48.266;14.188;2023-05-16T10:43:44;97287.59;;;13.00;81.54
68476;BME280;55464;48.266;14.188;2023-05-16T10:46:13;97294.34;;;13.03;83.02
68476;BME280;55464;48.266;14.188;2023-05-16T10:48:39;97302.69;;;13.07;83.69
68476;BME280;55464;48.266;14.188;2023-05-16T10:51:33;97293.97;;;13.04;83.56
68476;BME280;55464;48.266;14.188;2023-05-16T10:54:04;97294.41;;;13.07;83.55
68476;BME280;55464;48.266;14.188;2023-05-16T10:56:32;97284.50;;;13.05;83.01
68476;BME280;55464;48.266;14.188;2023-05-16T10:58:57;97278.19;;;13.05;82.31
68476;BME280;55464;48.266;14.188;2023-05-16T11:01:26;97290.03;;;13.05;81.67
68476;BME280;55464;48.266;14.188;2023-05-16T11:14:07;97304.78;;;13.13;84.15
68476;BME280;55464;48.266;14.188;2023-05-16T11:16:34;97296.91;;;13.15;83.64
68476;BME280;55464;48.266;14.188;2023-05-16T11:19:07;97301.25;;;13.16;84.18
68476;BME280;55464;48.266;14.188;2023-05-16T11:22:07;97290.19;;;13.16;84.80
68476;BME280;55464;48.266;14.188;2023-05-16T11:24:32;97281.09;;;13.16;84.29
68476;BME280;55464;48.266;14.188;2023-05-16T11:27:00;97291.78;;;13.17;83.99
68476;BME280;55464;48.266;14.188;2023-05-16T11:29:31;97298.47;;;13.16;84.48
68476;BME280;55464;48.266;14.188;2023-05-16T11:32:02;97284.53;;;13.09;84.25
68476;BME280;55464;48.266;14.188;2023-05-16T11:34:28;97311.09;;;13.14;84.01
68476;BME280;55464;48.266;14.188;2023-05-16T11:36:55;97319.41;;;13.14;84.41
68476;BME280;55464;48.266;14.188;2023-05-16T11:39:21;97325.31;;;13.12;84.63
68476;BME280;55464;48.266;14.188;2023-05-16T11:41:49;97337.94;;;13.10;84.25
68476;BME280;55464;48.266;14.188;2023-05-16T11:44:15;97355.28;;;13.07;84.42
68476;BME280;55464;48.266;14.188;2023-05-16T11:46:41;97344.47;;;12.98;84.51
68476;BME280;55464;48.266;14.188;2023-05-16T11:49:08;97346.09;;;13.02;84.41
68476;BME280;55464;48.266;14.188;2023-05-16T11:51:37;97344.84;;;12.96;84.54
68476;BME280;55464;48.266;14.188;2023-05-16T11:54:03;97336.91;;;12.95;84.76
68476;BME280;55464;48.266;14.188;2023-05-16T11:56:34;97333.41;;;12.98;85.02
68476;BME280;55464;48.266;14.188;2023-05-16T11:58:59;97325.41;;;12.93;84.85
68476;BME280;55464;48.266;14.188;2023-05-16T12:01:34;97331.72;;;12.93;84.67
68476;BME280;55464;48.266;14.188;2023-05-16T12:04:00;97322.22;;;12.91;84.98
68476;BME280;55464;48.266;14.188;2023-05-16T12:06:26;97313.50;;;12.89;85.10
68476;BME280;55464;48.266;14.188;2023-05-16T12:08:53;97304.88;;;12.94;85.43
68476;BME280;55464;48.266;14.188;2023-05-16T12:11:18;97294.56;;;12.91;85.26
68476;BME280;55464;48.266;14.188;2023-05-16T12:13:45;97287.38;;;12.86;85.28
68476;BME280;55464;48.266;14.188;2023-05-16T12:16:11;97298.00;;;12.84;85.40
68476;BME280;55464;48.266;14.188;2023-05-16T12:18:37;97314.25;;;12.85;85.59
68476;BME280;55464;48.266;14.188;2023-05-16T12:21:06;97320.63;;;12.90;85.67
68476;BME280;55464;48.266;14.188;2023-05-16T12:23:32;97328.84;;;12.86;85.70
68476;BME280;55464;48.266;14.188;2023-05-16T12:25:58;97326.81;;;12.83;85.25
68476;BME280;55464;48.266;14.188;2023-05-16T12:28:30;97322.53;;;12.85;85.70
68476;BME280;55464;48.266;14.188;2023-05-16T12:30:58;97320.13;;;12.84;85.77
68476;BME280;55464;48.266;14.188;2023-05-16T12:33:23;97338.44;;;12.92;85.95
68476;BME280;55464;48.266;14.188;2023-05-16T12:35:49;97324.16;;;12.90;86.17
68476;BME280;55464;48.266;14.188;2023-05-16T12:38:18;97325.03;;;12.94;86.42
68476;BME280;55464;48.266;14.188;2023-05-16T12:40:45;97319.81;;;12.89;86.11
68476;BME280;55464;48.266;14.188;2023-05-16T12:43:19;97331.19;;;12.84;86.28
68476;BME280;55464;48.266;14.188;2023-05-16T12:45:54;97326.88;;;12.86;85.93
68476;BME280;55464;48.266;14.188;2023-05-16T12:48:21;97327.66;;;12.83;86.07
68476;BME280;55464;48.266;14.188;2023-05-16T12:50:47;97316.38;;;12.73;86.17
68476;BME280;55464;48.266;14.188;2023-05-16T12:53:14;97320.81;;;12.77;85.77
68476;BME280;55464;48.266;14.188;2023-05-16T12:55:41;97320.34;;;12.72;85.44
68476;BME280;55464;48.266;14.188;2023-05-16T12:58:07;97321.81;;;12.65;85.00
68476;BME280;55464;48.266;14.188;2023-05-16T13:00:33;97312.34;;;12.66;84.37
68476;BME280;55464;48.266;14.188;2023-05-16T13:03:00;97301.25;;;12.63;83.82
68476;BME280;55464;48.266;14.188;2023-05-16T13:05:26;97310.38;;;12.67;84.16
68476;BME280;55464;48.266;14.188;2023-05-16T13:07:51;97305.31;;;12.73;84.59
68476;BME280;55464;48.266;14.188;2023-05-16T13:10:17;97304.00;;;12.63;84.19
68476;BME280;55464;48.266;14.188;2023-05-16T13:12:42;97314.75;;;12.68;84.31